Time;durP1;ratioP1;P1;durP2;ratioP2;P2;SDS_P1;SDS_P2;PMS_P1;PMS_P2;Temp;Humidity;BMP_temperature;BMP_pressure;BME280_temperature;BME280_humidity;BME280_pressure;Samples;Min_cycle;Max_cycle;Signal;HPM_P1;HPM_P2
2021/06/11 00:01:24;;;;;;;;;;;;;;;25.12;58.27;101008.97;5049525;28;1411;-73
2021/06/11 00:03:49;;;;;;;;;;;;;;;25.17;57.59;101013.53;5045961;28;1843;-73
2021/06/11 00:06:14;;;;;;;;;;;;;;;25.12;58.36;101019.19;5050017;28;1718;-72
2021/06/11 00:08:40;;;;;;;;;;;;;;;25.10;58.54;101011.25;5047849;28;1876;-77
2021/06/11 00:11:06;;;;;;;;;;;;;;;25.20;57.79;101007.38;5043780;28;1872;-76
2021/06/11 00:13:32;;;;;;;;;;;;;;;25.10;58.34;101010.44;5031501;28;1889;-77
2021/06/11 00:15:57;;;;;;;;;;;;;;;25.07;58.18;101003.63;5041430;28;1839;-77
2021/06/11 00:18:22;;;;;;;;;;;;;;;25.10;58.55;101008.47;5045963;28;1532;-77
2021/06/11 00:20:47;;;;;;;;;;;;;;;25.09;58.69;101003.28;5049407;28;1631;-77
2021/06/11 00:23:13;;;;;;;;;;;;;;;25.09;58.32;101003.28;5050403;28;1776;-76
2021/06/11 00:25:38;;;;;;;;;;;;;;;25.11;58.30;101006.53;5049460;28;1512;-77
2021/06/11 00:28:04;;;;;;;;;;;;;;;25.09;58.65;101001.34;5049073;28;1839;-77
2021/06/11 00:30:31;;;;;;;;;;;;;;;25.05;58.60;100996.78;5051257;28;1910;-77
2021/06/11 00:32:57;;;;;;;;;;;;;;;25.06;58.75;101004.75;5050243;28;1652;-71
2021/06/11 00:35:22;;;;;;;;;;;;;;;25.10;58.52;101008.47;5045569;28;1650;-71
2021/06/11 00:37:48;;;;;;;;;;;;;;;25.11;58.42;101001.84;5041805;28;1754;-71
2021/06/11 00:40:13;;;;;;;;;;;;;;;25.11;58.14;100999.09;5039091;28;1886;-71
2021/06/11 00:42:38;;;;;;;;;;;;;;;25.10;58.32;101004.91;5043683;28;1749;-73
2021/06/11 00:45:05;;;;;;;;;;;;;;;25.14;58.14;100999.59;5030150;28;1137;-74
2021/06/11 00:47:30;;;;;;;;;;;;;;;25.13;58.05;100998.75;5029901;28;880;-74
2021/06/11 00:49:55;;;;;;;;;;;;;;;25.14;58.01;100994.06;5036049;28;1971;-74
2021/06/11 00:52:21;;;;;;;;;;;;;;;25.09;58.25;100995.84;5039269;28;1870;-74
2021/06/11 00:54:46;;;;;;;;;;;;;;;25.10;58.02;100996.66;5044770;28;1736;-74
2021/06/11 00:57:12;;;;;;;;;;;;;;;25.09;58.08;101001.34;5038410;28;1671;-74
2021/06/11 00:59:40;;;;;;;;;;;;;;;25.11;57.63;100996.34;5034806;28;1393;-73
2021/06/11 01:02:05;;;;;;;;;;;;;;;25.11;57.82;100998.25;5050017;28;867;-73
2021/06/11 01:04:30;;;;;;;;;;;;;;;25.08;58.15;100999.72;5046818;28;1569;-73
2021/06/11 01:06:56;;;;;;;;;;;;;;;25.09;58.11;101006.03;5041325;28;1326;-73
2021/06/11 01:09:21;;;;;;;;;;;;;;;25.11;57.64;101004.59;5030438;28;840;-73
2021/06/11 01:11:47;;;;;;;;;;;;;;;25.08;58.08;101005.22;5030098;28;1933;-74
2021/06/11 01:14:13;;;;;;;;;;;;;;;25.11;58.08;101010.13;5044413;28;1958;-74
2021/06/11 01:16:38;;;;;;;;;;;;;;;25.08;57.85;101005.22;5036753;28;1221;-74
2021/06/11 01:19:05;;;;;;;;;;;;;;;25.09;57.81;100997.78;5033956;28;1108;-73
2021/06/11 01:21:31;;;;;;;;;;;;;;;25.08;58.18;101001.66;5033843;28;900;-73
2021/06/11 01:24:00;;;;;;;;;;;;;;;25.05;58.03;101005.88;5033847;28;1186;-74
2021/06/11 01:26:32;;;;;;;;;;;;;;;25.06;58.18;100999.22;5034106;28;930;-74
2021/06/11 01:29:05;;;;;;;;;;;;;;;25.05;57.99;101003.13;5033846;28;937;-74
2021/06/11 01:31:31;;;;;;;;;;;;;;;25.05;57.87;101003.13;5033598;28;1981;-73
2021/06/11 01:33:59;;;;;;;;;;;;;;;25.05;57.99;101005.88;5033748;28;879;-73
2021/06/11 01:36:27;;;;;;;;;;;;;;;25.04;57.96;100989.66;5033752;28;870;-73
2021/06/11 01:38:53;;;;;;;;;;;;;;;25.04;57.77;100997.94;5034118;28;827;-74
2021/06/11 01:41:20;;;;;;;;;;;;;;;25.07;57.79;100997.28;5033778;28;921;-73
2021/06/11 01:43:46;;;;;;;;;;;;;;;25.11;57.63;100998.25;5033693;28;882;-73
2021/06/11 01:46:13;;;;;;;;;;;;;;;25.11;57.90;100995.50;5033749;28;833;-73
2021/06/11 01:48:39;;;;;;;;;;;;;;;25.06;57.75;100999.22;5033843;28;924;-73
2021/06/11 01:51:07;;;;;;;;;;;;;;;25.08;57.53;101002.47;5033265;28;1874;-73
2021/06/11 01:53:33;;;;;;;;;;;;;;;25.03;57.98;100994.38;5033632;28;1111;-73
2021/06/11 01:55:59;;;;;;;;;;;;;;;25.05;57.89;100997.63;5033647;28;807;-73
2021/06/11 01:58:24;;;;;;;;;;;;;;;25.04;57.66;100995.16;5033649;28;872;-73
2021/06/11 02:00:50;;;;;;;;;;;;;;;25.04;57.74;100989.66;5033498;28;944;-73
2021/06/11 02:03:17;;;;;;;;;;;;;;;25.09;57.26;100995.84;5033448;28;908;-73
2021/06/11 02:05:43;;;;;;;;;;;;;;;25.09;57.75;100995.00;5040613;28;1641;-73
2021/06/11 02:08:09;;;;;;;;;;;;;;;25.05;57.49;100996.78;5051896;28;1674;-73
2021/06/11 02:10:35;;;;;;;;;;;;;;;25.03;57.46;100996.28;5055222;28;1973;-73
2021/06/11 02:13:01;;;;;;;;;;;;;;;25.04;57.80;100989.66;5056134;28;1518;-73
2021/06/11 02:15:28;;;;;;;;;;;;;;;25.03;57.90;100994.38;5052662;28;1680;-73
2021/06/11 02:17:54;;;;;;;;;;;;;;;25.05;57.67;101008.63;5046263;28;2794;-73
2021/06/11 02:20:21;;;;;;;;;;;;;;;25.05;57.42;101005.06;5044981;28;2705;-72
2021/06/11 02:22:46;;;;;;;;;;;;;;;25.09;57.67;100995.84;5052149;28;1309;-71
2021/06/11 02:25:16;;;;;;;;;;;;;;;25.08;57.25;100996.97;5052653;28;2793;-71
2021/06/11 02:27:42;;;;;;;;;;;;;;;25.06;57.83;100999.22;5052707;28;855;-71
2021/06/11 02:30:08;;;;;;;;;;;;;;;25.07;57.77;101000.88;5052581;28;1569;-71
2021/06/11 02:32:34;;;;;;;;;;;;;;;25.07;57.61;101003.63;5052626;28;1973;-71
2021/06/11 02:35:04;;;;;;;;;;;;;;;25.07;57.19;101003.63;5051067;28;1390;-71
2021/06/11 02:37:29;;;;;;;;;;;;;;;25.06;57.83;101009.44;5030530;28;1222;-71
2021/06/11 02:39:54;;;;;;;;;;;;;;;25.05;57.21;101008.63;5032704;28;1140;-71
2021/06/11 02:42:20;;;;;;;;;;;;;;;25.06;57.46;101014.97;5032547;28;934;-71
2021/06/11 02:44:49;;;;;;;;;;;;;;;25.09;56.99;101017.06;5032675;28;863;-72
2021/06/11 02:47:37;;;;;;;;;;;;;;;25.08;57.45;101012.69;5032521;28;855;-72
2021/06/11 02:50:06;;;;;;;;;;;;;;;25.10;57.09;101011.25;5033209;28;1345;-73
2021/06/11 02:52:32;;;;;;;;;;;;;;;25.11;57.21;101010.13;5032304;28;1935;-73
2021/06/11 02:55:00;;;;;;;;;;;;;;;25.09;57.63;101011.53;5032224;28;889;-72
2021/06/11 02:57:26;;;;;;;;;;;;;;;25.15;56.95;101018.53;5031028;28;1423;-71
2021/06/11 02:59:56;;;;;;;;;;;;;;;25.12;57.47;101017.25;5040886;28;864;-68
2021/06/11 03:02:30;;;;;;;;;;;;;;;25.18;57.42;101028.13;5048623;28;3433;-67
2021/06/11 03:04:56;;;;;;;;;;;;;;;25.14;57.47;101029.91;5037391;28;2854;-67
2021/06/11 03:07:28;;;;;;;;;;;;;;;25.02;56.00;101027.75;5033705;28;2747;-67
2021/06/11 03:09:55;;;;;;;;;;;;;;;24.77;55.33;101027.31;5051967;28;877;-67
2021/06/11 03:12:21;;;;;;;;;;;;;;;24.66;55.62;101025.94;5051958;28;1870;-67
2021/06/11 03:14:47;;;;;;;;;;;;;;;24.65;55.37;101035.31;5048403;28;1686;-67
2021/06/11 03:17:12;;;;;;;;;;;;;;;24.64;54.60;101042.78;5040715;28;1232;-67
2021/06/11 03:19:39;;;;;;;;;;;;;;;24.70;55.18;101033.25;5045522;28;2636;-67
2021/06/11 03:22:08;;;;;;;;;;;;;;;24.87;55.31;101034.47;5048100;28;1266;-67
2021/06/11 03:24:52;;;;;;;;;;;;;;;24.76;54.48;101036.69;5050440;28;1061;-67
2021/06/11 03:27:20;;;;;;;;;;;;;;;24.81;55.67;101033.81;5051383;28;1660;-67
2021/06/11 03:29:57;;;;;;;;;;;;;;;24.81;55.40;101042.06;5051827;28;916;-67
2021/06/11 03:32:25;;;;;;;;;;;;;;;24.79;55.39;101046.25;5040099;28;2067;-67
2021/06/11 03:34:52;;;;;;;;;;;;;;;24.84;55.68;101044.19;5043663;28;1828;-67
2021/06/11 03:37:18;;;;;;;;;;;;;;;24.79;54.39;101047.09;5035376;28;2099;-67
2021/06/11 03:39:55;;;;;;;;;;;;;;;24.66;54.70;101045.22;5034178;28;1782;-67
2021/06/11 03:42:21;;;;;;;;;;;;;;;24.49;53.89;101051.41;5038878;28;1836;-67
2021/06/11 03:44:47;;;;;;;;;;;;;;;24.13;54.29;101055.00;5038272;28;2463;-67
2021/06/11 03:47:14;;;;;;;;;;;;;;;24.02;54.87;101048.09;5042412;28;1707;-67
2021/06/11 03:49:43;;;;;;;;;;;;;;;23.91;55.62;101053.03;5044703;28;1975;-67
2021/06/11 03:52:10;;;;;;;;;;;;;;;23.89;55.52;101058.03;5043741;28;1949;-67
2021/06/11 03:54:37;;;;;;;;;;;;;;;23.89;55.30;101055.28;5030887;28;1259;-67
2021/06/11 03:57:04;;;;;;;;;;;;;;;23.86;54.98;101050.38;5032940;28;2978;-67
2021/06/11 03:59:33;;;;;;;;;;;;;;;23.90;54.48;101054.97;5044320;28;2020;-67
2021/06/11 04:01:59;;;;;;;;;;;;;;;23.94;54.44;101055.16;5047412;28;1783;-68
2021/06/11 04:04:24;;;;;;;;;;;;;;;24.08;54.00;101044.91;5037815;28;1989;-69
2021/06/11 04:06:51;;;;;;;;;;;;;;;24.32;54.03;101052.88;5040986;28;1730;-69
2021/06/11 04:09:19;;;;;;;;;;;;;;;24.75;54.77;101056.28;5038370;28;922;-68
2021/06/11 04:12:07;;;;;;;;;;;;;;;24.78;54.45;101048.22;5031591;28;1882;-69
2021/06/11 04:14:44;;;;;;;;;;;;;;;24.78;54.39;101048.22;5046563;28;1167;-68
2021/06/11 04:17:11;;;;;;;;;;;;;;;24.82;54.25;101049.19;5034504;28;1220;-68
2021/06/11 04:19:56;;;;;;;;;;;;;;;24.68;53.99;101063.06;5030137;28;882;-68
2021/06/11 04:22:26;;;;;;;;;;;;;;;24.64;54.55;101058.50;5039053;28;1351;-68
2021/06/11 04:24:52;;;;;;;;;;;;;;;24.78;54.82;101061.19;5060012;28;1661;-69
2021/06/11 04:27:19;;;;;;;;;;;;;;;24.69;54.02;101063.88;5052051;28;1274;-68
2021/06/11 04:29:46;;;;;;;;;;;;;;;24.57;54.30;101071.88;5049137;28;878;-68
2021/06/11 04:32:11;;;;;;;;;;;;;;;24.61;54.56;101061.88;5048973;28;1903;-68
2021/06/11 04:34:37;;;;;;;;;;;;;;;24.73;54.85;101067.63;5048906;28;953;-68
2021/06/11 04:37:02;;;;;;;;;;;;;;;24.80;54.37;101062.47;5049574;28;1262;-68
2021/06/11 04:39:27;;;;;;;;;;;;;;;24.76;54.47;101060.69;5038650;28;2076;-68
2021/06/11 04:41:53;;;;;;;;;;;;;;;24.82;54.37;101056.66;5037029;28;1041;-68
2021/06/11 04:44:18;;;;;;;;;;;;;;;24.61;54.56;101054.44;5042364;28;902;-68
2021/06/11 04:46:43;;;;;;;;;;;;;;;24.69;54.66;101061.13;5049724;28;865;-68
2021/06/11 04:49:09;;;;;;;;;;;;;;;24.79;54.45;101063.63;5040966;28;2019;-68
2021/06/11 04:51:35;;;;;;;;;;;;;;;24.79;54.12;101068.28;5046336;28;1874;-68
2021/06/11 04:54:01;;;;;;;;;;;;;;;24.73;54.48;101081.41;5046197;28;1764;-68
2021/06/11 04:56:26;;;;;;;;;;;;;;;24.82;55.53;101076.75;5049046;28;2100;-68
2021/06/11 04:58:54;;;;;;;;;;;;;;;24.79;54.14;101082.91;5042401;28;1691;-68
2021/06/11 05:01:19;;;;;;;;;;;;;;;24.91;55.12;101082.31;5041689;28;1705;-68
2021/06/11 05:03:45;;;;;;;;;;;;;;;24.80;54.83;101084.50;5037738;28;1699;-68
2021/06/11 05:06:10;;;;;;;;;;;;;;;24.95;55.19;101093.50;5041043;28;1722;-68
2021/06/11 05:08:35;;;;;;;;;;;;;;;24.85;54.79;101084.41;5037247;28;865;-69
2021/06/11 05:11:02;;;;;;;;;;;;;;;24.87;55.78;101090.41;5039127;28;1972;-68
2021/06/11 05:13:27;;;;;;;;;;;;;;;24.99;56.18;101091.75;5038841;28;1969;-68
2021/06/11 05:15:52;;;;;;;;;;;;;;;24.90;55.37;101098.03;5035132;28;1302;-69
2021/06/11 05:18:18;;;;;;;;;;;;;;;24.98;55.65;101101.16;5049407;28;929;-69
2021/06/11 05:20:43;;;;;;;;;;;;;;;24.96;56.31;101103.41;5049652;28;821;-69
2021/06/11 05:23:09;;;;;;;;;;;;;;;24.89;54.90;101099.16;5036905;28;1159;-75
2021/06/11 05:25:35;;;;;;;;;;;;;;;24.89;55.16;101109.34;5030124;28;1263;-77
2021/06/11 05:28:00;;;;;;;;;;;;;;;24.81;55.78;101108.19;5029086;28;1290;-71
2021/06/11 05:30:27;;;;;;;;;;;;;;;24.83;57.03;101111.44;5030091;28;906;-77
2021/06/11 05:32:52;;;;;;;;;;;;;;;24.98;56.78;101114.94;5029586;28;1910;-76
2021/06/11 05:35:18;;;;;;;;;;;;;;;24.97;57.72;101116.88;5036585;28;1793;-71
2021/06/11 05:37:43;;;;;;;;;;;;;;;24.98;56.92;101117.69;5038695;28;1007;-71
2021/06/11 05:40:09;;;;;;;;;;;;;;;24.87;55.32;101117.13;5027565;28;1151;-71
2021/06/11 05:42:34;;;;;;;;;;;;;;;24.92;55.48;101114.25;5029098;28;866;-72
2021/06/11 05:44:59;;;;;;;;;;;;;;;24.95;55.61;101126.56;5029222;28;937;-74
2021/06/11 05:47:25;;;;;;;;;;;;;;;24.98;55.47;101106.66;5029278;28;861;-68
2021/06/11 05:49:50;;;;;;;;;;;;;;;24.89;54.84;101120.38;5029313;28;941;-69
2021/06/11 05:52:15;;;;;;;;;;;;;;;24.87;55.29;101123.47;5029113;28;1898;-69
2021/06/11 05:54:41;;;;;;;;;;;;;;;24.96;55.98;101117.19;5034786;28;1638;-69
2021/06/11 05:57:06;;;;;;;;;;;;;;;25.18;55.38;101121.88;5038421;28;920;-69
2021/06/11 05:59:31;;;;;;;;;;;;;;;24.78;55.27;101121.78;5031838;28;1263;-68
2021/06/11 06:01:57;;;;;;;;;;;;;;;24.82;56.20;101118.06;5032823;28;1204;-69
2021/06/11 06:04:22;;;;;;;;;;;;;;;24.88;55.20;101119.56;5032559;28;899;-69
2021/06/11 06:06:47;;;;;;;;;;;;;;;24.81;55.43;101129.41;5032383;28;929;-69
2021/06/11 06:09:13;;;;;;;;;;;;;;;24.88;55.09;101125.09;5032742;28;1184;-68
2021/06/11 06:11:38;;;;;;;;;;;;;;;24.87;55.32;101125.38;5032510;28;1891;-69
2021/06/11 06:14:04;;;;;;;;;;;;;;;24.72;55.41;101130.16;5033110;28;874;-68
2021/06/11 06:16:30;;;;;;;;;;;;;;;24.98;56.00;101126.78;5033090;28;1137;-68
2021/06/11 06:18:55;;;;;;;;;;;;;;;24.81;54.86;101134.91;5033126;28;933;-69
2021/06/11 06:21:20;;;;;;;;;;;;;;;24.84;54.81;101132.34;5033346;28;854;-69
2021/06/11 06:23:46;;;;;;;;;;;;;;;24.91;55.12;101124.47;5033104;28;903;-68
2021/06/11 06:26:11;;;;;;;;;;;;;;;24.91;54.73;101123.63;5032834;28;882;-69
2021/06/11 06:28:36;;;;;;;;;;;;;;;24.88;54.64;101121.53;5036786;28;1954;-70
2021/06/11 06:31:02;;;;;;;;;;;;;;;24.94;55.66;101122.22;5058723;28;1914;-71
2021/06/11 06:33:28;;;;;;;;;;;;;;;24.99;56.56;101122.91;5072501;28;1665;-71
2021/06/11 06:35:53;;;;;;;;;;;;;;;25.06;55.57;101123.25;5057990;28;1491;-74
2021/06/11 06:38:18;;;;;;;;;;;;;;;25.10;56.98;101124.25;5052651;28;857;-74
2021/06/11 06:40:46;;;;;;;;;;;;;;;25.19;56.91;101124.28;5052392;28;923;-73
2021/06/11 06:43:12;;;;;;;;;;;;;;;25.16;56.53;101118.59;5052203;28;1260;-70
2021/06/11 06:45:37;;;;;;;;;;;;;;;25.12;56.99;101115.66;5052721;28;877;-68
2021/06/11 06:48:03;;;;;;;;;;;;;;;25.20;57.21;101106.63;5046409;28;1816;-70
2021/06/11 06:50:29;;;;;;;;;;;;;;;25.23;57.80;101114.31;5040461;28;953;-70
2021/06/11 06:52:55;;;;;;;;;;;;;;;25.26;57.47;101116.41;5048107;28;1926;-73
2021/06/11 06:55:20;;;;;;;;;;;;;;;25.27;56.93;101122.72;5032230;28;880;-71
2021/06/11 06:57:46;;;;;;;;;;;;;;;25.29;57.12;101112.19;5032406;28;882;-75
2021/06/11 07:00:11;;;;;;;;;;;;;;;25.30;56.61;101108.31;5051468;28;1232;-72
2021/06/11 07:02:37;;;;;;;;;;;;;;;25.34;56.70;101105.75;5041022;28;1846;-70
2021/06/11 07:05:03;;;;;;;;;;;;;;;25.38;57.17;101112.25;5040311;28;1784;-70
2021/06/11 07:07:28;;;;;;;;;;;;;;;25.38;57.35;101112.25;5032853;28;879;-71
2021/06/11 07:09:53;;;;;;;;;;;;;;;25.39;56.55;101114.69;5050303;28;1362;-69
2021/06/11 07:12:19;;;;;;;;;;;;;;;25.41;57.14;101120.69;5052378;28;1920;-68
2021/06/11 07:14:44;;;;;;;;;;;;;;;25.42;56.49;101108.53;5051906;28;1244;-71
2021/06/11 07:17:09;;;;;;;;;;;;;;;25.41;56.73;101108.84;5052159;28;1207;-68
2021/06/11 07:19:34;;;;;;;;;;;;;;;25.43;57.04;101114.84;5052370;28;1157;-74
2021/06/11 07:22:00;;;;;;;;;;;;;;;25.45;56.47;101110.66;5041712;28;2012;-73
2021/06/11 07:24:25;;;;;;;;;;;;;;;25.42;56.96;101110.50;5043433;28;1856;-68
2021/06/11 07:26:50;;;;;;;;;;;;;;;25.46;57.23;101108.72;5043486;28;1628;-67
2021/06/11 07:29:16;;;;;;;;;;;;;;;25.48;56.86;101106.47;5046521;28;1705;-68
2021/06/11 07:31:41;;;;;;;;;;;;;;;25.48;57.15;101104.50;5049524;28;1906;-73
2021/06/11 07:34:07;;;;;;;;;;;;;;;25.48;57.58;101103.69;5048140;28;1567;-70
2021/06/11 07:36:32;;;;;;;;;;;;;;;25.56;57.18;101099.34;5048802;28;1605;-72
2021/06/11 07:38:57;;;;;;;;;;;;;;;25.57;57.78;101101.75;5049352;28;1625;-69
2021/06/11 07:41:23;;;;;;;;;;;;;;;25.57;57.33;101100.97;5049616;28;1492;-69
2021/06/11 07:43:51;;;;;;;;;;;;;;;25.57;57.58;101100.97;5048196;28;1713;-68
2021/06/11 07:46:20;;;;;;;;;;;;;;;25.59;57.32;101099.50;5043185;28;1955;-67
2021/06/11 07:48:46;;;;;;;;;;;;;;;25.58;57.27;101103.41;5046436;28;1708;-67
2021/06/11 07:51:11;;;;;;;;;;;;;;;25.61;57.29;101097.22;5047777;28;1929;-67
2021/06/11 07:53:37;;;;;;;;;;;;;;;25.60;57.71;101098.38;5048059;28;1982;-71
2021/06/11 07:56:02;;;;;;;;;;;;;;;25.61;57.35;101099.19;5046949;28;1736;-72
2021/06/11 07:58:27;;;;;;;;;;;;;;;25.56;56.59;101094.63;5047523;28;1994;-72
2021/06/11 08:00:52;;;;;;;;;;;;;;;25.56;57.07;101096.59;5045566;28;1551;-72
2021/06/11 08:03:18;;;;;;;;;;;;;;;25.57;56.58;101095.44;5046582;28;1485;-70
2021/06/11 08:05:43;;;;;;;;;;;;;;;25.55;56.14;101095.75;5049264;28;1561;-72
2021/06/11 08:08:08;;;;;;;;;;;;;;;25.56;56.03;101089.13;5049878;28;1577;-70
2021/06/11 08:10:34;;;;;;;;;;;;;;;25.54;56.07;101083.13;5043641;28;1919;-70
2021/06/11 08:12:59;;;;;;;;;;;;;;;25.55;56.16;101090.25;5046551;28;1999;-70
2021/06/11 08:15:25;;;;;;;;;;;;;;;25.56;56.21;101083.59;5044341;28;1677;-70
2021/06/11 08:17:51;;;;;;;;;;;;;;;25.56;56.00;101082.81;5050906;28;1201;-70
2021/06/11 08:20:16;;;;;;;;;;;;;;;25.56;56.09;101091.88;5045006;28;1802;-70
2021/06/11 08:22:41;;;;;;;;;;;;;;;25.55;55.88;101087.47;5046580;28;1471;-70
2021/06/11 08:25:08;;;;;;;;;;;;;;;25.54;56.49;101083.13;5046586;28;1816;-70
2021/06/11 08:27:33;;;;;;;;;;;;;;;25.55;55.77;101083.91;5044823;28;1037;-70
2021/06/11 08:29:59;;;;;;;;;;;;;;;25.57;56.31;101082.47;5049813;28;1551;-70
2021/06/11 08:32:25;;;;;;;;;;;;;;;25.55;56.38;101081.97;5038888;28;1910;-70
2021/06/11 08:34:51;;;;;;;;;;;;;;;25.57;56.22;101082.47;5041899;28;843;-72
2021/06/11 08:37:16;;;;;;;;;;;;;;;25.55;55.68;101081.16;5040092;28;1524;-72
2021/06/11 08:39:41;;;;;;;;;;;;;;;25.55;56.03;101081.16;5044981;28;2037;-73
2021/06/11 08:42:07;;;;;;;;;;;;;;;25.56;55.97;101082.81;5033495;28;1679;-72
2021/06/11 08:44:33;;;;;;;;;;;;;;;25.53;55.86;101084.22;5043882;28;1231;-73
2021/06/11 08:46:58;;;;;;;;;;;;;;;25.52;56.48;101077.09;5049504;28;1567;-70
2021/06/11 08:49:24;;;;;;;;;;;;;;;25.57;56.58;101084.41;5050641;28;886;-72
2021/06/11 08:51:51;;;;;;;;;;;;;;;25.60;56.09;101079.06;5049773;28;1941;-72
2021/06/11 08:54:16;;;;;;;;;;;;;;;25.65;54.94;101078.91;5050466;28;869;-72
2021/06/11 08:56:42;;;;;;;;;;;;;;;25.69;55.31;101079.09;5048357;28;1452;-72
2021/06/11 08:59:07;;;;;;;;;;;;;;;25.65;55.34;101078.91;5049751;28;1256;-72
2021/06/11 09:01:33;;;;;;;;;;;;;;;25.63;55.31;101086.69;5050225;28;1397;-72
2021/06/11 09:03:59;;;;;;;;;;;;;;;25.57;55.35;101087.16;5049772;28;826;-72
2021/06/11 09:06:25;;;;;;;;;;;;;;;25.63;54.95;101075.66;5049802;28;916;-71
2021/06/11 09:08:53;;;;;;;;;;;;;;;25.74;53.47;101084.47;5049430;28;847;-72
2021/06/11 09:11:20;;;;;;;;;;;;;;;25.66;52.93;101083.31;5049009;28;2036;-72
2021/06/11 09:13:48;;;;;;;;;;;;;;;25.43;52.25;101063.28;5049420;28;1375;-71
2021/06/11 09:16:14;;;;;;;;;;;;;;;25.60;52.42;101073.56;5049403;28;2047;-72
2021/06/11 09:18:44;;;;;;;;;;;;;;;25.76;51.29;101082.19;5049800;28;811;-72
2021/06/11 09:21:28;;;;;;;;;;;;;;;25.71;50.71;101079.56;5049244;28;1265;-71
2021/06/11 09:26:39;;;;;;;;;;;;;;;25.41;48.34;101084.03;5050017;28;830;-72
2021/06/11 09:29:21;;;;;;;;;;;;;;;25.46;49.68;101079.19;5049396;28;1906;-72
2021/06/11 09:31:47;;;;;;;;;;;;;;;25.47;50.45;101083.59;5048833;28;1965;-72
2021/06/11 09:34:19;;;;;;;;;;;;;;;25.51;50.63;101080.97;5051569;28;833;-72
2021/06/11 09:36:57;;;;;;;;;;;;;;;25.51;50.45;101086.50;5053626;28;906;-71
2021/06/11 09:39:23;;;;;;;;;;;;;;;25.53;50.95;101089.75;5053797;28;831;-72
2021/06/11 09:42:01;;;;;;;;;;;;;;;25.54;51.05;101085.88;5053815;28;1206;-72
2021/06/11 09:44:26;;;;;;;;;;;;;;;25.55;51.53;101087.47;5053316;28;1247;-72
2021/06/11 09:46:51;;;;;;;;;;;;;;;25.53;51.65;101073.19;5053317;28;920;-71
2021/06/11 09:49:17;;;;;;;;;;;;;;;25.56;51.72;101071.78;5053469;28;851;-72
2021/06/11 09:51:42;;;;;;;;;;;;;;;25.56;52.07;101066.25;5053400;28;1935;-70
2021/06/11 09:54:26;;;;;;;;;;;;;;;25.57;53.01;101062.34;5069376;28;1598;-72
2021/06/11 09:56:53;;;;;;;;;;;;;;;25.62;52.77;101053.94;5065611;28;1453;-72
2021/06/11 09:59:39;;;;;;;;;;;;;;;25.65;53.16;101054.09;5053569;28;1263;-72
2021/06/11 10:02:17;;;;;;;;;;;;;;;25.60;53.24;101058.97;5052499;28;1330;-71
2021/06/11 10:04:44;;;;;;;;;;;;;;;25.61;53.43;101053.09;5053486;28;847;-69
2021/06/11 10:07:10;;;;;;;;;;;;;;;25.61;54.09;101052.28;5053735;28;871;-70
2021/06/11 10:09:35;;;;;;;;;;;;;;;25.67;54.05;101056.53;5053816;28;823;-71
2021/06/11 10:12:01;;;;;;;;;;;;;;;25.67;54.11;101057.34;5053927;28;1866;-72
2021/06/11 10:14:27;;;;;;;;;;;;;;;25.67;53.76;101056.53;5053080;28;1265;-69
2021/06/11 10:16:52;;;;;;;;;;;;;;;25.64;54.67;101054.44;5053329;28;1137;-70
2021/06/11 10:19:18;;;;;;;;;;;;;;;25.71;52.32;101052.78;5053240;28;896;-70
2021/06/11 10:21:44;;;;;;;;;;;;;;;25.62;50.79;101070.47;5053614;28;873;-70
2021/06/11 10:24:10;;;;;;;;;;;;;;;25.51;50.66;101061.69;5053791;28;1488;-70
2021/06/11 10:26:35;;;;;;;;;;;;;;;25.47;49.98;101083.59;5052712;28;1453;-71
2021/06/11 10:29:01;;;;;;;;;;;;;;;25.40;49.17;101066.69;5053008;28;1240;-71
2021/06/11 10:31:26;;;;;;;;;;;;;;;25.45;50.05;101074.00;5061151;28;1981;-71
2021/06/11 10:33:53;;;;;;;;;;;;;;;25.38;49.96;101065.38;5072850;28;873;-70
2021/06/11 10:36:29;;;;;;;;;;;;;;;25.56;49.49;101057.97;5073149;28;929;-72
2021/06/11 10:38:55;;;;;;;;;;;;;;;25.46;49.78;101059.09;5073133;28;886;-71
2021/06/11 10:41:22;;;;;;;;;;;;;;;25.42;49.30;101064.41;5072947;28;929;-69
2021/06/11 10:43:47;;;;;;;;;;;;;;;25.44;50.33;101066.84;5063997;28;1243;-70
2021/06/11 10:46:26;;;;;;;;;;;;;;;25.39;49.73;101045.75;5053271;28;892;-69
2021/06/11 10:49:07;;;;;;;;;;;;;;;25.47;50.15;101064.28;5052941;28;1132;-70
2021/06/11 10:51:58;;;;;;;;;;;;;;;25.53;50.88;101073.19;5052940;28;1847;-69
2021/06/11 10:54:25;;;;;;;;;;;;;;;25.54;51.30;101072.09;5050541;28;1044;-69
2021/06/11 10:56:56;;;;;;;;;;;;;;;25.57;51.72;101068.66;5052022;28;1366;-68
2021/06/11 10:59:32;;;;;;;;;;;;;;;25.58;51.88;101066.75;5052305;28;1310;-69
2021/06/11 11:01:57;;;;;;;;;;;;;;;25.59;51.88;101058.13;5052696;28;887;-69
2021/06/11 11:04:27;;;;;;;;;;;;;;;25.62;51.74;101051.97;5052570;28;1294;-69
2021/06/11 11:06:52;;;;;;;;;;;;;;;25.64;52.03;101051.66;5052663;28;933;-69
2021/06/11 11:09:17;;;;;;;;;;;;;;;25.65;52.37;101050.50;5051590;28;1210;-69
2021/06/11 11:11:46;;;;;;;;;;;;;;;25.65;52.21;101045.00;5052502;28;1929;-69
2021/06/11 11:14:30;;;;;;;;;;;;;;;25.65;52.96;101048.56;5052323;28;1229;-69
2021/06/11 11:16:58;;;;;;;;;;;;;;;25.67;52.53;101045.50;5051861;28;1153;-69
2021/06/11 11:19:43;;;;;;;;;;;;;;;25.67;53.33;101048.25;5052224;28;1156;-70
2021/06/11 11:22:08;;;;;;;;;;;;;;;25.72;53.14;101048.09;5052382;28;860;-69
2021/06/11 11:24:34;;;;;;;;;;;;;;;25.73;52.52;101048.91;5052238;28;1449;-66
2021/06/11 11:26:59;;;;;;;;;;;;;;;25.73;52.82;101048.91;5051747;28;1508;-66
2021/06/11 11:29:24;;;;;;;;;;;;;;;25.71;53.05;101052.78;5050877;28;1257;-67
2021/06/11 11:31:51;;;;;;;;;;;;;;;25.74;52.86;101051.34;5051578;28;1944;-66
2021/06/11 11:34:17;;;;;;;;;;;;;;;25.70;53.00;101039.34;5052067;28;915;-66
2021/06/11 11:36:42;;;;;;;;;;;;;;;25.67;52.83;101043.53;5052260;28;810;-67
2021/06/11 11:39:09;;;;;;;;;;;;;;;25.74;52.99;101047.78;5051844;28;1121;-66
2021/06/11 11:41:35;;;;;;;;;;;;;;;25.68;53.10;101047.13;5051705;28;853;-66
2021/06/11 11:44:00;;;;;;;;;;;;;;;25.69;53.13;101044.03;5050480;28;1393;-67
2021/06/11 11:46:26;;;;;;;;;;;;;;;25.72;53.24;101048.09;5051280;28;854;-66
2021/06/11 11:48:51;;;;;;;;;;;;;;;25.64;53.33;101058.00;5051746;28;788;-67
2021/06/11 11:51:18;;;;;;;;;;;;;;;25.59;53.62;101077.44;5050610;28;1870;-66
2021/06/11 11:53:43;;;;;;;;;;;;;;;25.60;53.50;101087.34;5050682;28;819;-66
2021/06/11 11:56:09;;;;;;;;;;;;;;;25.60;53.17;101090.09;5050861;28;946;-67
2021/06/11 11:58:34;;;;;;;;;;;;;;;25.62;52.87;101093.34;5050271;28;1494;-67
2021/06/11 12:00:59;;;;;;;;;;;;;;;25.58;52.22;101089.63;5050813;28;870;-72
2021/06/11 12:03:25;;;;;;;;;;;;;;;25.66;52.26;101088.03;5061094;28;1877;-72
2021/06/11 12:05:50;;;;;;;;;;;;;;;25.66;53.51;101086.06;5071524;28;871;-71
2021/06/11 12:08:15;;;;;;;;;;;;;;;25.69;53.60;101079.88;5071246;28;886;-71
2021/06/11 12:10:41;;;;;;;;;;;;;;;25.59;53.43;101084.91;5071318;28;857;-71
2021/06/11 12:13:06;;;;;;;;;;;;;;;25.67;53.62;101082.16;5068169;28;1945;-71
2021/06/11 12:15:31;;;;;;;;;;;;;;;25.55;53.98;101075.66;5051206;28;822;-71
2021/06/11 12:17:57;;;;;;;;;;;;;;;25.62;53.26;101082.31;5051111;28;1396;-71
2021/06/11 12:20:23;;;;;;;;;;;;;;;25.66;52.10;101096.28;5051198;28;959;-71
2021/06/11 12:22:48;;;;;;;;;;;;;;;25.57;52.23;101089.94;5051793;28;1413;-72
2021/06/11 12:25:13;;;;;;;;;;;;;;;25.64;53.27;101096.59;5051310;28;905;-73
2021/06/11 12:27:39;;;;;;;;;;;;;;;25.64;52.62;101107.66;5051938;28;1146;-88
2021/06/11 12:30:05;;;;;;;;;;;;;;;25.55;53.15;101105.97;5049982;28;1273;-77
2021/06/11 12:32:30;;;;;;;;;;;;;;;25.61;52.88;101108.28;5051326;28;1999;-83
2021/06/11 12:34:55;;;;;;;;;;;;;;;25.65;52.19;101109.25;5049999;28;1201;-82
2021/06/11 12:37:21;;;;;;;;;;;;;;;25.40;51.33;101119.06;5051009;28;962;-75
2021/06/11 12:39:46;;;;;;;;;;;;;;;25.49;51.56;101116.34;5051049;28;894;-77
2021/06/11 12:42:16;;;;;;;;;;;;;;;25.28;51.23;101130.69;5051114;28;853;-75
2021/06/11 12:44:42;;;;;;;;;;;;;;;25.43;51.68;101137.72;5049289;28;1329;-75
2021/06/11 12:47:11;;;;;;;;;;;;;;;25.40;51.61;101143.88;5050953;28;905;-75
2021/06/11 12:49:37;;;;;;;;;;;;;;;25.49;52.06;101132.88;5050879;28;898;-74
2021/06/11 12:52:02;;;;;;;;;;;;;;;25.47;52.06;101130.47;5050802;28;1878;-72